Time;durP1;ratioP1;P1;durP2;ratioP2;P2;SDS_P1;SDS_P2;PMS_P1;PMS_P2;Temp;Humidity;BMP_temperature;BMP_pressure;BME280_temperature;BME280_humidity;BME280_pressure;Samples;Min_cycle;Max_cycle;Signal;HPM_P1;HPM_P2
2023/03/10 00:01:47;;;;;;;22.08;11.02;;;1.70;99.90;;;;;;6251472;22;20055;-81
2023/03/10 00:04:14;;;;;;;18.42;9.77;;;1.70;99.90;;;;;;6251524;22;20022;-81
2023/03/10 00:06:40;;;;;;;17.70;10.85;;;1.80;99.90;;;;;;6251480;22;20068;-81
2023/03/10 00:09:07;;;;;;;16.90;9.10;;;1.70;99.90;;;;;;6251465;22;20019;-81
2023/03/10 00:11:32;;;;;;;18.73;10.02;;;1.80;99.90;;;;;;6251485;22;20089;-81
2023/03/10 00:13:58;;;;;;;18.63;10.55;;;1.80;99.90;;;;;;6251185;22;20432;-81
2023/03/10 00:16:26;;;;;;;17.25;10.07;;;1.80;99.90;;;;;;6251435;22;20398;-81
2023/03/10 00:18:55;;;;;;;17.27;9.45;;;1.80;99.90;;;;;;6251249;22;20007;-81
2023/03/10 00:21:24;;;;;;;16.67;10.07;;;1.70;99.90;;;;;;6251244;22;20054;-81
2023/03/10 00:23:50;;;;;;;18.80;9.98;;;1.80;99.90;;;;;;6251260;22;20016;-81
2023/03/10 00:26:18;;;;;;;20.40;11.50;;;1.90;99.90;;;;;;6251161;22;20193;-81
2023/03/10 00:28:44;;;;;;;21.17;13.05;;;1.90;99.90;;;;;;6251251;22;20374;-81
2023/03/10 00:31:12;;;;;;;20.48;11.30;;;1.90;99.90;;;;;;6251135;22;20476;-81
2023/03/10 00:33:38;;;;;;;22.63;12.50;;;1.90;99.90;;;;;;6251198;22;20015;-81
2023/03/10 00:36:05;;;;;;;20.80;12.35;;;1.90;99.90;;;;;;6278465;22;20436;-81
2023/03/10 00:38:31;;;;;;;21.90;13.05;;;1.90;99.90;;;;;;6251154;22;20015;-81
2023/03/10 00:41:02;;;;;;;19.33;11.57;;;1.90;99.90;;;;;;6250945;22;20356;-82
2023/03/10 00:43:28;;;;;;;22.70;12.63;;;2.00;99.90;;;;;;6251117;22;20043;-82
2023/03/10 00:45:54;;;;;;;20.38;12.45;;;2.00;99.90;;;;;;6251038;22;20023;-82
2023/03/10 00:48:19;;;;;;;24.98;15.23;;;2.00;99.90;;;;;;6278081;22;20035;-82
2023/03/10 00:50:45;;;;;;;20.35;11.27;;;1.90;99.90;;;;;;6251040;22;20462;-82
2023/03/10 00:53:11;;;;;;;22.27;11.55;;;1.90;99.90;;;;;;6250782;22;20343;-81
2023/03/10 00:55:38;;;;;;;19.40;10.15;;;2.00;99.90;;;;;;6250700;22;20015;-81
2023/03/10 00:58:04;;;;;;;17.52;9.57;;;2.00;99.90;;;;;;6278013;22;20023;-82
2023/03/10 01:00:30;;;;;;;18.40;11.60;;;2.00;99.90;;;;;;6250919;22;20459;-82
2023/03/10 01:02:56;;;;;;;17.60;9.48;;;2.00;99.90;;;;;;6250956;22;20077;-81
2023/03/10 01:05:22;;;;;;;17.92;9.98;;;2.00;99.90;;;;;;6250904;22;20086;-81
2023/03/10 01:07:48;;;;;;;18.15;11.00;;;2.10;99.90;;;;;;6250894;22;20043;-82
2023/03/10 01:10:13;;;;;;;18.48;11.52;;;2.00;99.90;;;;;;6250856;22;20008;-82
2023/03/10 01:12:39;;;;;;;18.02;9.82;;;2.10;99.90;;;;;;6250882;22;20011;-82
2023/03/10 01:15:06;;;;;;;19.42;10.48;;;2.00;99.90;;;;;;6251728;22;20020;-82
2023/03/10 01:17:31;;;;;;;16.40;8.57;;;2.10;99.90;;;;;;6250674;22;20015;-82
2023/03/10 01:19:57;;;;;;;17.02;8.75;;;2.10;99.90;;;;;;6250768;22;20016;-82
2023/03/10 01:22:23;;;;;;;16.00;9.38;;;2.10;99.90;;;;;;6250773;22;20039;-81
2023/03/10 01:24:48;;;;;;;16.63;8.25;;;2.10;99.90;;;;;;6250666;22;20011;-81
2023/03/10 01:27:14;;;;;;;15.15;8.85;;;2.00;99.90;;;;;;6250697;22;20019;-81
2023/03/10 01:29:40;;;;;;;16.23;9.48;;;2.10;99.90;;;;;;6250495;22;20011;-81
2023/03/10 01:32:06;;;;;;;14.73;8.93;;;2.10;99.90;;;;;;6250654;22;20151;-81
2023/03/10 01:34:32;;;;;;;14.90;7.93;;;2.10;99.90;;;;;;6250471;22;20069;-81
2023/03/10 01:36:58;;;;;;;16.17;9.85;;;2.10;99.90;;;;;;6250489;22;20454;-81
2023/03/10 01:39:24;;;;;;;14.27;8.07;;;2.10;99.90;;;;;;6277900;22;20436;-81
2023/03/10 01:41:49;;;;;;;14.70;8.30;;;2.10;99.90;;;;;;6250565;22;20022;-81
2023/03/10 01:44:18;;;;;;;14.43;8.32;;;2.10;99.90;;;;;;6250530;22;20016;-81
2023/03/10 01:46:52;;;;;;;15.77;8.82;;;2.10;99.90;;;;;;6250538;22;20094;-81
2023/03/10 01:49:32;;;;;;;16.55;8.48;;;2.20;99.90;;;;;;6250563;22;20043;-81
2023/03/10 01:52:16;;;;;;;19.02;9.68;;;2.20;99.90;;;;;;6250572;22;20129;-81
2023/03/10 01:54:53;;;;;;;14.05;8.85;;;2.10;99.90;;;;;;6250104;22;20020;-81
2023/03/10 01:57:35;;;;;;;14.60;8.65;;;2.20;99.90;;;;;;6250393;22;20121;-81
2023/03/10 02:00:02;;;;;;;14.65;8.55;;;2.20;99.90;;;;;;6250926;22;20028;-81
2023/03/10 02:02:31;;;;;;;13.65;7.85;;;2.30;99.90;;;;;;6250418;22;20019;-81
2023/03/10 02:04:58;;;;;;;14.25;8.07;;;2.20;99.90;;;;;;6250018;22;20020;-81
2023/03/10 02:07:28;;;;;;;14.93;8.18;;;2.30;99.90;;;;;;6250393;22;20054;-81
2023/03/10 02:09:55;;;;;;;21.30;9.73;;;2.30;99.90;;;;;;6250254;22;20378;-81
2023/03/10 02:12:22;;;;;;;19.92;10.10;;;2.20;99.90;;;;;;6250272;22;20027;-81
2023/03/10 02:14:50;;;;;;;17.38;10.10;;;2.30;99.90;;;;;;6250041;22;20439;-81
2023/03/10 02:17:18;;;;;;;19.33;10.95;;;2.30;99.90;;;;;;6250216;22;20026;-81
2023/03/10 02:19:57;;;;;;;17.95;9.45;;;2.20;99.90;;;;;;6250166;22;20018;-82
2023/03/10 02:22:23;;;;;;;18.27;10.55;;;2.20;99.90;;;;;;6250218;22;20015;-81
2023/03/10 02:24:53;;;;;;;18.15;11.32;;;2.20;99.90;;;;;;6250055;22;20106;-82
2023/03/10 02:27:23;;;;;;;21.27;12.85;;;2.20;99.90;;;;;;6250100;22;20057;-82
2023/03/10 02:29:54;;;;;;;19.20;10.20;;;2.20;99.90;;;;;;6250833;22;20061;-82
2023/03/10 02:32:21;;;;;;;17.73;9.73;;;2.20;99.90;;;;;;6250006;22;20444;-82
2023/03/10 02:34:47;;;;;;;18.10;10.40;;;2.10;99.90;;;;;;6276977;22;20447;-81
2023/03/10 02:37:28;;;;;;;16.35;9.77;;;2.20;99.90;;;;;;6249972;22;20031;-81
2023/03/10 02:39:55;;;;;;;18.05;11.02;;;2.20;99.90;;;;;;6250110;22;20027;-81
2023/03/10 02:42:23;;;;;;;21.67;10.32;;;2.20;99.90;;;;;;6277403;22;20016;-82
2023/03/10 02:44:49;;;;;;;16.95;9.35;;;2.30;99.90;;;;;;6249963;22;20094;-82
2023/03/10 02:47:15;;;;;;;16.38;9.35;;;2.20;99.90;;;;;;6249928;22;20051;-81
2023/03/10 02:49:41;;;;;;;17.13;10.25;;;2.20;99.90;;;;;;6276962;22;20381;-81
2023/03/10 02:52:12;;;;;;;18.88;10.75;;;2.30;99.90;;;;;;6277074;22;20486;-82
2023/03/10 02:54:45;;;;;;;18.65;10.48;;;2.20;99.90;;;;;;6276778;22;20023;-82
2023/03/10 02:57:10;;;;;;;18.88;9.95;;;2.30;99.90;;;;;;6224501;22;20382;-81
2023/03/10 02:59:36;;;;;;;16.38;9.18;;;2.30;99.90;;;;;;6249872;22;20466;-81
2023/03/10 03:02:02;;;;;;;17.13;10.18;;;2.30;99.90;;;;;;6277234;22;20020;-82
2023/03/10 03:04:27;;;;;;;18.08;10.75;;;2.30;99.90;;;;;;6249944;22;20024;-82
2023/03/10 03:06:53;;;;;;;18.60;11.50;;;2.30;99.90;;;;;;6249765;22;20011;-81
2023/03/10 03:09:19;;;;;;;16.73;9.60;;;2.30;99.90;;;;;;6249881;22;20016;-81
2023/03/10 03:11:44;;;;;;;17.77;9.90;;;2.30;99.90;;;;;;6249767;22;20052;-81
2023/03/10 03:14:10;;;;;;;17.77;9.43;;;2.30;99.90;;;;;;6249610;22;20015;-81
2023/03/10 03:16:36;;;;;;;18.38;10.13;;;2.30;99.90;;;;;;6251733;22;20018;-82
2023/03/10 03:19:02;;;;;;;16.50;9.50;;;2.30;99.90;;;;;;6251948;22;20047;-82
2023/03/10 03:21:27;;;;;;;16.38;9.32;;;2.30;99.90;;;;;;6251927;22;20351;-81
2023/03/10 03:23:53;;;;;;;14.40;6.82;;;2.30;99.90;;;;;;6251884;22;20098;-82
2023/03/10 03:26:22;;;;;;;18.92;10.25;;;2.30;99.90;;;;;;6251993;22;20440;-81
2023/03/10 03:28:48;;;;;;;16.70;9.48;;;2.40;99.90;;;;;;6251844;22;20012;-82
2023/03/10 03:31:15;;;;;;;13.52;8.30;;;2.40;99.90;;;;;;6251742;22;20108;-81
2023/03/10 03:33:41;;;;;;;17.25;9.73;;;2.30;99.90;;;;;;6251796;22;20094;-82
2023/03/10 03:36:07;;;;;;;18.05;9.10;;;2.30;99.90;;;;;;6251586;22;20374;-82
2023/03/10 03:38:33;;;;;;;16.02;8.50;;;2.30;99.90;;;;;;6251692;22;20015;-82
2023/03/10 03:40:59;;;;;;;18.77;9.93;;;2.30;99.90;;;;;;6251709;22;20514;-82
2023/03/10 03:43:26;;;;;;;15.57;8.77;;;2.40;99.90;;;;;;6251727;22;20043;-81
2023/03/10 03:45:52;;;;;;;17.45;9.15;;;2.30;99.90;;;;;;6251617;22;20016;-81
2023/03/10 03:48:17;;;;;;;18.52;9.73;;;2.40;99.90;;;;;;6251749;22;20031;-82
2023/03/10 03:50:43;;;;;;;18.00;9.50;;;2.30;99.90;;;;;;6251698;22;20016;-82
2023/03/10 03:53:09;;;;;;;16.25;10.20;;;2.30;99.90;;;;;;6279064;22;20367;-82
2023/03/10 03:55:40;;;;;;;19.58;10.90;;;2.40;99.90;;;;;;6278493;22;20090;-82
2023/03/10 03:58:06;;;;;;;18.83;11.02;;;2.40;99.90;;;;;;6251597;22;20027;-82
2023/03/10 04:00:33;;;;;;;22.48;12.57;;;2.40;99.90;;;;;;6251577;22;20043;-82
2023/03/10 04:02:59;;;;;;;22.73;11.75;;;2.30;99.90;;;;;;6251460;22;20019;-82
2023/03/10 04:05:25;;;;;;;25.98;14.63;;;2.40;99.90;;;;;;6251552;22;20034;-82
2023/03/10 04:07:51;;;;;;;24.80;14.48;;;2.40;99.90;;;;;;6251630;22;20099;-82
2023/03/10 04:10:20;;;;;;;27.38;13.85;;;2.40;99.90;;;;;;6251494;22;20335;-82
2023/03/10 04:12:46;;;;;;;27.08;15.52;;;2.40;99.90;;;;;;6251366;22;20019;-82
2023/03/10 04:15:12;;;;;;;28.30;14.93;;;2.40;99.90;;;;;;6251240;22;20015;-82
2023/03/10 04:17:38;;;;;;;28.27;14.98;;;2.50;99.90;;;;;;6251245;22;20344;-82
2023/03/10 04:20:07;;;;;;;28.50;15.38;;;2.50;99.90;;;;;;6251243;22;20015;-82
2023/03/10 04:22:33;;;;;;;29.23;15.65;;;2.50;99.90;;;;;;6251337;22;20016;-82
2023/03/10 04:24:58;;;;;;;28.30;14.98;;;2.40;99.90;;;;;;6251314;22;20105;-82
2023/03/10 04:27:24;;;;;;;26.60;14.10;;;2.50;99.90;;;;;;6251008;22;20386;-82
2023/03/10 04:29:50;;;;;;;29.45;15.02;;;2.50;99.90;;;;;;6251267;22;20317;-82
2023/03/10 04:32:15;;;;;;;29.30;15.40;;;2.60;99.90;;;;;;6251189;22;20008;-82
2023/03/10 04:34:41;;;;;;;22.98;12.60;;;2.60;99.90;;;;;;6251112;22;20019;-82
2023/03/10 04:37:07;;;;;;;28.60;16.60;;;2.50;99.90;;;;;;6278317;22;20039;-83
2023/03/10 04:39:33;;;;;;;29.48;16.10;;;2.50;99.90;;;;;;6278838;22;20004;-82
2023/03/10 04:41:58;;;;;;;26.30;14.20;;;2.50;99.90;;;;;;6278595;22;20020;-82
2023/03/10 04:44:24;;;;;;;26.42;14.00;;;2.60;99.90;;;;;;6278593;22;20436;-82
2023/03/10 04:46:50;;;;;;;26.52;13.70;;;2.60;99.90;;;;;;6250969;22;20043;-82
2023/03/10 04:49:15;;;;;;;26.20;14.40;;;2.50;99.90;;;;;;6278187;22;20026;-82
2023/03/10 04:51:41;;;;;;;25.00;14.05;;;2.60;99.90;;;;;;6252133;22;20087;-82
2023/03/10 04:54:13;;;;;;;27.73;17.25;;;2.50;99.90;;;;;;6278120;22;20090;-83
2023/03/10 04:56:38;;;;;;;22.98;12.70;;;2.60;99.90;;;;;;6250972;22;20034;-82
2023/03/10 04:59:04;;;;;;;24.58;13.27;;;2.60;99.90;;;;;;6251020;22;20008;-82
2023/03/10 05:01:31;;;;;;;24.88;13.75;;;2.60;99.90;;;;;;6251006;22;20015;-82
2023/03/10 05:04:02;;;;;;;23.33;13.18;;;2.60;99.90;;;;;;6251596;22;20012;-82
2023/03/10 05:06:29;;;;;;;29.30;14.82;;;2.60;99.90;;;;;;6250973;22;20047;-82
2023/03/10 05:08:55;;;;;;;24.45;13.32;;;2.70;99.90;;;;;;6250931;22;20018;-82
2023/03/10 05:11:22;;;;;;;24.70;14.52;;;2.60;99.90;;;;;;6250769;22;20020;-81
2023/03/10 05:13:48;;;;;;;25.90;13.80;;;2.60;99.90;;;;;;6277934;22;20023;-82
2023/03/10 05:16:16;;;;;;;22.65;13.55;;;2.60;99.90;;;;;;6277805;22;20039;-83
2023/03/10 05:18:42;;;;;;;24.35;12.52;;;2.60;99.90;;;;;;6277896;22;20027;-82
2023/03/10 05:21:08;;;;;;;21.27;11.10;;;2.60;99.90;;;;;;6277768;22;20016;-82
2023/03/10 05:23:34;;;;;;;21.50;12.30;;;2.70;99.90;;;;;;6250717;22;20027;-82
2023/03/10 05:26:07;;;;;;;24.27;12.40;;;2.60;99.90;;;;;;6277858;22;20008;-82
2023/03/10 05:28:34;;;;;;;23.83;12.57;;;2.60;99.90;;;;;;6278112;22;20023;-82
2023/03/10 05:30:59;;;;;;;21.70;11.63;;;2.50;99.90;;;;;;6250587;22;20015;-83
2023/03/10 05:33:25;;;;;;;23.33;13.30;;;2.50;99.90;;;;;;6250729;22;20018;-85
2023/03/10 05:35:51;;;;;;;23.58;12.90;;;2.30;99.90;;;;;;6250413;22;20019;-86
2023/03/10 05:38:17;;;;;;;20.20;11.57;;;2.30;99.90;;;;;;6250280;22;20465;-85
2023/03/10 05:40:43;;;;;;;22.05;12.55;;;2.20;99.90;;;;;;6250520;22;20090;-85
2023/03/10 05:43:10;;;;;;;23.00;13.75;;;2.10;99.90;;;;;;6250386;22;20011;-84
2023/03/10 05:45:36;;;;;;;24.95;13.75;;;2.10;99.90;;;;;;6277663;22;20011;-85
2023/03/10 05:48:02;;;;;;;24.23;11.85;;;2.00;99.90;;;;;;6250459;22;20016;-85
2023/03/10 05:50:28;;;;;;;25.60;11.88;;;2.00;99.90;;;;;;6250479;22;20027;-85
2023/03/10 05:52:54;;;;;;;25.98;13.57;;;1.90;99.90;;;;;;6250472;22;20008;-85
2023/03/10 05:55:20;;;;;;;26.00;13.18;;;1.90;99.90;;;;;;6250147;22;20026;-87
2023/03/10 05:57:47;;;;;;;22.23;12.02;;;1.90;99.90;;;;;;6250418;22;20016;-85
2023/03/10 06:00:13;;;;;;;28.08;15.23;;;1.90;99.90;;;;;;6250376;22;20021;-85
2023/03/10 06:02:40;;;;;;;27.33;16.95;;;1.90;99.90;;;;;;6250219;22;20443;-85
2023/03/10 06:05:08;;;;;;;25.15;13.27;;;1.90;99.90;;;;;;6250474;22;20012;-85
2023/03/10 06:07:34;;;;;;;21.48;12.38;;;1.90;99.90;;;;;;6250296;22;20015;-85
2023/03/10 06:10:00;;;;;;;22.25;10.70;;;1.90;99.90;;;;;;6250282;22;20095;-84
2023/03/10 06:12:26;;;;;;;26.67;13.32;;;1.70;99.90;;;;;;6250204;22;20011;-85
2023/03/10 06:14:52;;;;;;;24.75;13.23;;;1.80;99.90;;;;;;6250289;22;20042;-85
2023/03/10 06:17:18;;;;;;;22.95;12.80;;;1.70;99.90;;;;;;6250111;22;20012;-85
2023/03/10 06:19:43;;;;;;;22.45;13.10;;;1.70;99.90;;;;;;6250167;22;20340;-84
2023/03/10 06:22:09;;;;;;;20.52;11.73;;;1.60;99.90;;;;;;6250157;22;20431;-85
2023/03/10 06:24:35;;;;;;;21.23;11.18;;;1.80;99.90;;;;;;6249970;22;20016;-85
2023/03/10 06:27:00;;;;;;;18.27;11.10;;;1.70;99.90;;;;;;6250047;22;20012;-84
2023/03/10 06:29:26;;;;;;;22.17;12.18;;;1.60;99.90;;;;;;6276976;22;20020;-84
2023/03/10 06:31:51;;;;;;;22.23;12.30;;;1.70;99.90;;;;;;6276855;22;20061;-84
2023/03/10 06:34:17;;;;;;;19.35;11.35;;;1.50;99.90;;;;;;6277207;22;20016;-84
2023/03/10 06:36:43;;;;;;;21.73;10.38;;;1.50;99.90;;;;;;6249794;22;20023;-84
2023/03/10 06:39:09;;;;;;;23.25;11.95;;;1.50;99.90;;;;;;6249527;22;20011;-84
2023/03/10 06:41:36;;;;;;;22.30;14.30;;;1.60;99.90;;;;;;6248514;22;20094;-84
2023/03/10 06:44:02;;;;;;;26.40;11.77;;;1.50;99.90;;;;;;6248941;22;20020;-85
2023/03/10 06:46:28;;;;;;;20.02;10.63;;;1.70;99.90;;;;;;6249039;22;20023;-84
2023/03/10 06:48:54;;;;;;;24.08;10.80;;;1.60;99.90;;;;;;6249984;22;20011;-84
2023/03/10 06:52:33;;;;;;;22.25;12.43;;;1.60;99.90;;;;;;6277238;22;20024;-85
2023/03/10 06:55:13;;;;;;;21.63;9.02;;;1.50;99.90;;;;;;6163587;22;20104;-85
2023/03/10 06:58:27;;;;;;;22.10;10.98;;;1.40;99.90;;;;;;6249944;22;20070;-85
2023/03/10 07:00:53;;;;;;;24.58;11.18;;;1.40;99.90;;;;;;6249823;22;20015;-85
2023/03/10 07:03:19;;;;;;;23.48;15.00;;;1.40;99.90;;;;;;6249974;22;20466;-86
2023/03/10 07:06:00;;;;;;;21.58;10.80;;;1.40;99.90;;;;;;6249785;22;20154;-86
2023/03/10 07:08:28;;;;;;;23.52;10.85;;;1.30;99.90;;;;;;6249821;22;20011;-86
2023/03/10 07:10:54;;;;;;;22.88;11.80;;;1.40;99.90;;;;;;6249507;22;20473;-85
2023/03/10 07:13:20;;;;;;;25.25;11.00;;;1.40;99.90;;;;;;6249846;22;20019;-86
2023/03/10 07:15:58;;;;;;;26.58;12.55;;;1.20;99.90;;;;;;6249710;22;20107;-86
2023/03/10 07:18:26;;;;;;;26.95;11.52;;;1.30;99.90;;;;;;6249789;22;20016;-87
2023/03/10 07:20:53;;;;;;;27.65;13.02;;;1.20;99.90;;;;;;6249686;22;20021;-86
2023/03/10 07:23:19;;;;;;;27.02;12.15;;;1.30;99.90;;;;;;6249730;22;20016;-87
2023/03/10 07:25:44;;;;;;;28.67;13.10;;;1.20;99.90;;;;;;6249845;22;20012;-87
2023/03/10 07:28:10;;;;;;;28.23;12.95;;;1.30;99.90;;;;;;6249906;22;20034;-87
2023/03/10 07:30:38;;;;;;;30.40;13.82;;;1.10;99.90;;;;;;6249748;22;20019;-87
2023/03/10 07:33:04;;;;;;;27.95;13.77;;;1.20;99.90;;;;;;6249683;22;20010;-88
2023/03/10 07:35:30;;;;;;;26.65;13.93;;;1.20;99.90;;;;;;6249945;22;20099;-86
2023/03/10 07:37:56;;;;;;;30.73;16.55;;;1.10;99.90;;;;;;6249692;22;20012;-86
2023/03/10 07:40:23;;;;;;;31.33;16.33;;;1.20;99.90;;;;;;6277006;22;20020;-86
2023/03/10 07:42:51;;;;;;;36.13;18.30;;;1.00;99.90;;;;;;6249781;22;20022;-88
2023/03/10 07:45:17;;;;;;;29.02;14.68;;;0.90;99.90;;;;;;6249809;22;20024;-91
2023/03/10 07:47:42;;;;;;;32.92;17.10;;;1.00;99.90;;;;;;6249647;22;20016;-88
2023/03/10 07:50:09;;;;;;;43.45;20.83;;;0.90;99.90;;;;;;6249376;22;20336;-89
2023/03/10 07:52:35;;;;;;;38.20;18.63;;;0.90;99.90;;;;;;6249651;22;20008;-89
2023/03/10 07:55:04;;;;;;;36.58;16.40;;;0.90;99.90;;;;;;6250143;22;20065;-89
2023/03/10 07:57:29;;;;;;;36.05;19.17;;;0.90;99.90;;;;;;6248794;22;20507;-88
2023/03/10 07:59:55;;;;;;;43.42;21.10;;;0.90;99.90;;;;;;6249321;22;20054;-88
2023/03/10 08:02:21;;;;;;;49.50;23.23;;;0.80;99.90;;;;;;6250619;22;20094;-89
2023/03/10 08:04:46;;;;;;;47.75;22.33;;;0.80;99.90;;;;;;6251037;22;20015;-88
2023/03/10 08:07:12;;;;;;;44.30;22.20;;;0.80;99.90;;;;;;6251222;22;20020;-88
2023/03/10 08:09:38;;;;;;;44.65;22.65;;;0.90;99.90;;;;;;6251491;22;20016;-89
2023/03/10 08:12:04;;;;;;;42.83;20.20;;;0.80;99.90;;;;;;6251578;22;20370;-90
2023/03/10 08:14:30;;;;;;;44.05;19.85;;;0.90;99.90;;;;;;6278169;22;20102;-90
2023/03/10 08:16:56;;;;;;;38.50;18.55;;;1.00;99.90;;;;;;6251343;22;20418;-88
2023/03/10 08:19:23;;;;;;;42.78;19.52;;;1.00;99.90;;;;;;6251046;22;20051;-88
2023/03/10 08:21:57;;;;;;;30.85;15.43;;;1.00;99.90;;;;;;6251085;22;20020;-91
2023/03/10 08:24:24;;;;;;;31.17;15.73;;;1.00;99.90;;;;;;6251102;22;20058;-85
2023/03/10 08:26:50;;;;;;;38.78;17.38;;;1.00;99.90;;;;;;6251167;22;20020;-90
2023/03/10 08:29:25;;;;;;;37.65;19.40;;;0.90;99.90;;;;;;6250897;22;20078;-89
2023/03/10 08:31:51;;;;;;;33.03;15.18;;;0.90;99.90;;;;;;6250786;22;20458;-89
2023/03/10 08:34:31;;;;;;;34.50;15.98;;;1.00;99.90;;;;;;6250683;22;20042;-89
2023/03/10 08:37:06;;;;;;;33.40;16.33;;;1.00;99.90;;;;;;6251357;22;20462;-89
2023/03/10 08:39:32;;;;;;;31.88;15.65;;;0.90;99.90;;;;;;6250843;22;20018;-90
2023/03/10 08:42:00;;;;;;;38.90;18.67;;;0.90;99.90;;;;;;6250460;22;20016;-89
2023/03/10 08:44:25;;;;;;;38.65;18.05;;;1.00;99.90;;;;;;6250747;22;20066;-89
2023/03/10 08:46:51;;;;;;;36.90;17.30;;;0.90;99.90;;;;;;6250976;22;20012;-89
2023/03/10 08:49:33;;;;;;;38.10;18.35;;;1.00;99.90;;;;;;6250790;22;20069;-88
2023/03/10 08:51:59;;;;;;;33.97;16.65;;;0.90;99.90;;;;;;6277778;22;20015;-90
2023/03/10 08:54:29;;;;;;;34.58;15.85;;;0.90;99.90;;;;;;6250187;22;20113;-90
2023/03/10 08:56:55;;;;;;;37.38;18.90;;;1.00;99.90;;;;;;6250881;22;20346;-87
2023/03/10 08:59:20;;;;;;;30.10;14.13;;;0.90;99.90;;;;;;6250730;22;20047;-87
2023/03/10 09:01:46;;;;;;;29.13;14.82;;;0.90;99.90;;;;;;6250738;22;20380;-89
2023/03/10 09:04:24;;;;;;;33.08;15.48;;;1.00;99.90;;;;;;6250354;22;20020;-89
2023/03/10 09:07:05;;;;;;;32.45;14.75;;;1.00;99.90;;;;;;6250961;22;20020;-87
2023/03/10 09:09:39;;;;;;;37.33;15.57;;;1.00;99.90;;;;;;6250612;22;20019;-87
2023/03/10 09:12:11;;;;;;;32.03;14.48;;;0.90;99.90;;;;;;6250512;22;20347;-87
2023/03/10 09:14:52;;;;;;;33.00;15.77;;;1.00;99.90;;;;;;6277382;22;20019;-86
2023/03/10 09:17:42;;;;;;;35.22;16.05;;;1.00;99.90;;;;;;6277592;22;20069;-86
2023/03/10 09:20:24;;;;;;;34.63;15.93;;;1.00;99.90;;;;;;6250291;22;20035;-87
2023/03/10 09:23:10;;;;;;;32.80;17.20;;;1.10;99.90;;;;;;6238095;23;20016;-84
2023/03/10 09:25:38;;;;;;;30.92;14.98;;;1.20;99.90;;;;;;6219991;23;20031;-85
2023/03/10 09:28:05;;;;;;;38.72;16.98;;;1.20;99.90;;;;;;6219464;23;20016;-85
2023/03/10 09:30:30;;;;;;;34.10;16.70;;;1.10;99.90;;;;;;6220057;23;20452;-85
2023/03/10 09:33:33;;;;;;;46.90;20.00;;;1.10;99.90;;;;;;6219678;23;20020;-88
2023/03/10 09:36:15;;;;;;;36.50;17.52;;;1.00;99.90;;;;;;6219765;23;20022;-87
2023/03/10 09:38:49;;;;;;;45.47;21.38;;;1.10;99.90;;;;;;6219718;23;20016;-88
2023/03/10 09:41:33;;;;;;;38.10;17.88;;;1.10;99.90;;;;;;6219984;23;20055;-88
2023/03/10 09:44:16;;;;;;;38.70;17.77;;;1.00;99.90;;;;;;6219631;23;20023;-86
2023/03/10 09:47:20;;;;;;;43.13;18.05;;;1.20;99.90;;;;;;6219846;23;20016;-86
2023/03/10 09:50:13;;;;;;;35.58;16.05;;;1.20;99.90;;;;;;6219628;23;20026;-86
2023/03/10 09:53:02;;;;;;;37.15;16.20;;;1.10;99.90;;;;;;6219810;23;20016;-88
2023/03/10 09:55:42;;;;;;;39.22;16.58;;;1.30;99.90;;;;;;6220193;23;20020;-87
2023/03/10 09:58:56;;;;;;;35.58;16.88;;;1.30;99.90;;;;;;6219555;23;20118;-89
2023/03/10 10:01:26;;;;;;;39.55;17.55;;;1.50;99.90;;;;;;6219591;23;20078;-86
2023/03/10 10:04:33;;;;;;;34.55;13.45;;;1.40;99.90;;;;;;6246812;23;20019;-86
2023/03/10 10:07:01;;;;;;;24.80;10.60;;;1.30;99.90;;;;;;6219655;23;20017;-88
2023/03/10 10:09:41;;;;;;;30.98;12.35;;;1.50;99.90;;;;;;6229713;23;20046;-88
2023/03/10 10:12:22;;;;;;;23.60;10.85;;;1.30;99.90;;;;;;6219523;23;20020;-89
2023/03/10 10:14:58;;;;;;;29.70;13.02;;;1.50;99.90;;;;;;6219591;23;20016;-86
2023/03/10 10:17:33;;;;;;;24.13;9.15;;;1.50;99.90;;;;;;6219540;23;20436;-88
2023/03/10 10:19:59;;;;;;;22.00;10.85;;;1.50;99.90;;;;;;6219426;23;20047;-88
2023/03/10 10:22:33;;;;;;;29.30;11.52;;;1.40;99.90;;;;;;6222388;22;20016;-87
2023/03/10 10:25:08;;;;;;;26.40;10.27;;;1.40;99.90;;;;;;6249255;22;20031;-89
2023/03/10 10:27:38;;;;;;;29.40;12.60;;;1.50;99.90;;;;;;6249949;22;20051;-89
2023/03/10 10:30:39;;;;;;;34.67;15.40;;;1.50;99.90;;;;;;6250086;22;20019;-85
2023/03/10 10:33:10;;;;;;;36.50;14.52;;;1.60;99.90;;;;;;6249780;22;20094;-83
2023/03/10 10:35:58;;;;;;;25.17;11.98;;;1.60;99.90;;;;;;6249795;22;20020;-85
2023/03/10 10:38:27;;;;;;;31.75;13.73;;;1.60;99.90;;;;;;6277071;22;20440;-83
2023/03/10 10:41:03;;;;;;;36.28;14.48;;;1.80;99.90;;;;;;6249714;22;20004;-85
2023/03/10 10:43:29;;;;;;;32.35;14.60;;;1.70;99.90;;;;;;6249607;22;20024;-80
2023/03/10 10:46:02;;;;;;;26.20;13.27;;;1.90;99.90;;;;;;6276800;22;20471;-83
2023/03/10 10:48:41;;;;;;;24.90;9.63;;;1.80;99.90;;;;;;6249755;22;20016;-84
2023/03/10 10:51:28;;;;;;;25.15;10.13;;;1.60;99.90;;;;;;6249729;22;20012;-84
2023/03/10 10:53:58;;;;;;;23.42;11.35;;;1.70;99.90;;;;;;6249621;22;20016;-86
2023/03/10 10:56:27;;;;;;;23.75;10.57;;;1.60;99.90;;;;;;6249189;22;20466;-83
2023/03/10 10:59:12;;;;;;;20.45;8.38;;;1.70;99.90;;;;;;6249629;22;20016;-84
2023/03/10 11:01:54;;;;;;;25.75;10.25;;;1.80;99.90;;;;;;6249671;22;20047;-84
2023/03/10 11:04:24;;;;;;;23.20;11.38;;;1.80;99.90;;;;;;6249485;22;20090;-86
2023/03/10 11:06:51;;;;;;;21.77;11.23;;;1.70;99.90;;;;;;6249080;22;20375;-85
2023/03/10 11:09:22;;;;;;;24.30;10.82;;;1.80;99.90;;;;;;6249409;22;20012;-86
2023/03/10 11:12:30;;;;;;;16.17;7.18;;;1.70;99.90;;;;;;6249490;22;20443;-85
2023/03/10 11:15:17;;;;;;;16.98;8.43;;;1.80;99.90;;;;;;6233503;22;20023;-86
2023/03/10 11:18:04;;;;;;;22.17;8.70;;;1.70;99.90;;;;;;6249671;22;20444;-85
2023/03/10 11:20:50;;;;;;;28.20;10.18;;;2.00;99.90;;;;;;6249362;22;20089;-86
2023/03/10 11:23:33;;;;;;;22.58;8.75;;;1.90;99.90;;;;;;6249604;22;20031;-86
2023/03/10 11:26:31;;;;;;;20.00;7.63;;;1.90;99.90;;;;;;6249452;22;20020;-85
2023/03/10 11:29:17;;;;;;;19.30;7.55;;;1.80;99.90;;;;;;6249186;22;20478;-83
2023/03/10 11:31:58;;;;;;;20.52;7.95;;;1.80;99.90;;;;;;6249582;22;20012;-86
2023/03/10 11:34:29;;;;;;;22.42;10.68;;;1.80;99.90;;;;;;6249825;22;20052;-83
2023/03/10 11:37:23;;;;;;;21.25;9.93;;;1.90;99.90;;;;;;6249443;22;20355;-84
2023/03/10 11:40:48;;;;;;;22.42;8.90;;;1.80;99.90;;;;;;6278539;22;20099;-87
2023/03/10 11:43:41;;;;;;;27.20;11.10;;;2.00;99.90;;;;;;6125463;23;20784;-86
2023/03/10 11:46:34;;;;;;;29.02;11.68;;;1.90;99.90;;;;;;6101436;23;20046;-85
2023/03/10 11:49:15;;;;;;;22.15;8.95;;;2.00;99.90;;;;;;6228932;22;20020;-85
2023/03/10 11:51:42;;;;;;;20.92;8.75;;;2.10;99.90;;;;;;6251099;22;20015;-83
2023/03/10 11:54:18;;;;;;;19.85;7.70;;;2.10;99.90;;;;;;6251237;22;20026;-84
2023/03/10 11:56:44;;;;;;;19.20;6.60;;;2.10;99.90;;;;;;6251497;22;20024;-85
2023/03/10 11:59:19;;;;;;;20.42;7.72;;;2.30;99.90;;;;;;6278860;22;20011;-86
2023/03/10 12:01:59;;;;;;;16.88;8.13;;;2.10;99.90;;;;;;6251209;22;20051;-86
2023/03/10 12:04:47;;;;;;;21.88;7.72;;;2.20;99.90;;;;;;6278473;22;20047;-84
2023/03/10 12:07:38;;;;;;;26.15;11.02;;;2.10;99.90;;;;;;6251204;22;20023;-84
2023/03/10 12:10:16;;;;;;;20.38;9.15;;;2.20;99.90;;;;;;6251163;22;20012;-84
2023/03/10 12:12:44;;;;;;;22.05;8.07;;;2.20;99.90;;;;;;6250899;22;20047;-81
2023/03/10 12:15:32;;;;;;;18.20;8.38;;;2.20;99.90;;;;;;6251032;22;20011;-81
2023/03/10 12:17:58;;;;;;;23.65;12.02;;;2.20;99.90;;;;;;6251064;22;20015;-82
2023/03/10 12:20:29;;;;;;;16.50;7.07;;;2.30;99.90;;;;;;6251083;22;20022;-82
2023/03/10 12:23:11;;;;;;;14.13;7.35;;;2.30;99.90;;;;;;6250667;22;20085;-85
2023/03/10 12:25:37;;;;;;;12.03;5.00;;;2.40;99.90;;;;;;6226231;22;20030;-84
2023/03/10 12:28:17;;;;;;;14.77;5.93;;;2.40;99.90;;;;;;6251013;22;20246;-86
2023/03/10 12:31:03;;;;;;;18.67;8.23;;;2.40;99.90;;;;;;6250824;22;20024;-81
2023/03/10 12:33:41;;;;;;;18.98;8.93;;;2.50;99.90;;;;;;6249497;22;20367;-83
2023/03/10 12:36:19;;;;;;;20.92;10.25;;;2.60;99.90;;;;;;6250852;22;20046;-82
2023/03/10 12:38:52;;;;;;;24.23;9.27;;;2.60;99.90;;;;;;6250864;22;20027;-85
2023/03/10 12:41:27;;;;;;;25.90;11.82;;;2.60;99.90;;;;;;6250854;22;20023;-83
2023/03/10 12:44:26;;;;;;;16.05;6.85;;;2.60;99.90;;;;;;6250773;22;20019;-83
2023/03/10 12:47:12;;;;;;;21.67;9.93;;;2.60;99.90;;;;;;6251020;22;20012;-81
2023/03/10 12:49:43;;;;;;;20.00;9.23;;;2.60;99.90;;;;;;6250349;22;20026;-83
2023/03/10 12:52:16;;;;;;;18.85;7.97;;;2.50;99.90;;;;;;6250770;22;20451;-87
2023/03/10 12:55:01;;;;;;;10.63;4.78;;;2.60;99.90;;;;;;6250779;22;20020;-81
2023/03/10 12:57:48;;;;;;;15.63;8.48;;;2.70;99.90;;;;;;6250786;22;20097;-85
2023/03/10 13:00:23;;;;;;;12.63;6.43;;;2.70;99.90;;;;;;6250752;22;20015;-83
2023/03/10 13:03:00;;;;;;;16.25;6.72;;;2.60;99.90;;;;;;6250444;22;20061;-82